createdAt,value
2022-07-25T00:01:22.113Z,20.70
2022-07-25T00:03:51.730Z,20.70
2022-07-25T00:06:19.988Z,20.70
2022-07-25T00:08:47.969Z,20.60
2022-07-25T00:11:16.102Z,20.60
2022-07-25T00:13:44.116Z,20.60
2022-07-25T00:16:13.646Z,20.50
2022-07-25T00:18:42.145Z,20.50
2022-07-25T00:21:10.385Z,20.40
2022-07-25T00:23:38.443Z,20.40
2022-07-25T00:26:06.870Z,20.40
2022-07-25T00:28:35.061Z,20.30
2022-07-25T00:31:03.345Z,20.30
2022-07-25T00:33:33.018Z,20.30
2022-07-25T00:36:01.278Z,20.30
2022-07-25T00:38:29.354Z,20.30
2022-07-25T00:40:57.335Z,20.30
2022-07-25T00:43:25.390Z,20.20
2022-07-25T00:45:53.414Z,20.20
2022-07-25T00:48:21.493Z,20.20
2022-07-25T00:50:50.886Z,20.20
2022-07-25T00:53:19.906Z,20.20
2022-07-25T00:55:48.779Z,20.20
2022-07-25T00:58:18.808Z,20.20
2022-07-25T01:00:47.159Z,20.20
2022-07-25T01:03:16.273Z,20.10
2022-07-25T01:05:50.225Z,20.20
2022-07-25T01:08:23.450Z,20.10
2022-07-25T01:10:51.756Z,20.10
2022-07-25T01:13:19.829Z,20.10
2022-07-25T01:15:49.159Z,20.00
2022-07-25T01:18:17.310Z,20.00
2022-07-25T01:20:47.206Z,20.00
2022-07-25T01:23:15.280Z,20.00
2022-07-25T01:25:43.545Z,20.00
2022-07-25T01:28:11.677Z,20.00
2022-07-25T01:30:39.930Z,20.00
2022-07-25T01:33:08.039Z,20.00
2022-07-25T01:35:41.501Z,20.00
2022-07-25T01:38:13.704Z,20.00
2022-07-25T01:40:42.941Z,20.00
2022-07-25T01:43:12.255Z,20.00
2022-07-25T01:45:40.354Z,20.00
2022-07-25T01:48:09.122Z,20.00
2022-07-25T01:50:37.222Z,20.00
2022-07-25T01:53:05.581Z,20.00
2022-07-25T01:55:34.988Z,20.00
2022-07-25T01:58:03.156Z,20.00
2022-07-25T02:00:31.316Z,19.90
2022-07-25T02:03:28.472Z,19.90
2022-07-25T02:05:56.575Z,19.90
2022-07-25T02:08:24.786Z,19.80
2022-07-25T02:10:54.388Z,19.80
2022-07-25T02:13:22.733Z,19.80
2022-07-25T02:15:51.187Z,19.80
2022-07-25T02:18:19.274Z,19.80
2022-07-25T02:20:47.749Z,19.70
2022-07-25T02:23:15.795Z,19.70
2022-07-25T02:25:44.125Z,19.70
2022-07-25T02:28:13.824Z,19.70
2022-07-25T02:30:41.885Z,19.70
2022-07-25T02:33:10.006Z,19.70
2022-07-25T02:35:37.994Z,19.70
2022-07-25T02:38:06.044Z,19.60
2022-07-25T02:40:34.421Z,19.60
2022-07-25T02:43:02.649Z,19.60
2022-07-25T02:45:32.077Z,19.60
2022-07-25T02:48:02.346Z,19.50
2022-07-25T02:50:30.371Z,19.50
2022-07-25T02:52:58.430Z,19.40
2022-07-25T02:55:26.656Z,19.40
2022-07-25T02:57:54.852Z,19.40
2022-07-25T03:00:23.945Z,19.40
2022-07-25T03:02:53.393Z,19.40
2022-07-25T03:05:21.701Z,19.40
2022-07-25T03:07:49.737Z,19.40
2022-07-25T03:10:17.914Z,19.40
2022-07-25T03:12:46.806Z,19.40
2022-07-25T03:15:15.693Z,19.50
2022-07-25T03:17:43.988Z,19.50
2022-07-25T03:20:14.178Z,19.40
2022-07-25T03:22:42.313Z,19.40
2022-07-25T03:25:15.603Z,19.40
2022-07-25T03:27:50.648Z,19.40
2022-07-25T03:30:18.913Z,19.40
2022-07-25T03:32:47.736Z,19.40
2022-07-25T03:35:17.158Z,19.40
2022-07-25T03:37:45.557Z,19.40
2022-07-25T03:40:15.392Z,19.40
2022-07-25T03:42:44.429Z,19.40
2022-07-25T03:45:12.768Z,19.40
2022-07-25T03:47:40.836Z,19.30
2022-07-25T03:50:09.995Z,19.30
2022-07-25T03:52:39.488Z,19.30
2022-07-25T03:55:09.486Z,19.30
2022-07-25T03:57:37.645Z,19.40
2022-07-25T04:00:09.528Z,19.40
2022-07-25T04:02:38.490Z,19.40
2022-07-25T04:05:08.838Z,19.50
2022-07-25T04:07:39.216Z,19.50
2022-07-25T04:10:10.113Z,19.60
2022-07-25T04:12:38.908Z,19.50
2022-07-25T04:15:08.421Z,19.50
2022-07-25T04:17:37.916Z,19.50
2022-07-25T04:20:09.079Z,19.50
2022-07-25T04:22:37.039Z,19.60
2022-07-25T04:27:35.811Z,19.50
2022-07-25T04:30:04.024Z,19.50
2022-07-25T04:32:32.008Z,19.50
2022-07-25T04:34:59.960Z,19.50
2022-07-25T04:37:28.085Z,19.60
2022-07-25T04:39:56.134Z,19.60
2022-07-25T04:42:25.438Z,19.70
2022-07-25T04:44:53.447Z,19.80
2022-07-25T04:47:21.420Z,19.90
2022-07-25T04:49:49.424Z,19.90
2022-07-25T04:52:17.395Z,20.00
2022-07-25T04:54:45.394Z,20.20
2022-07-25T04:57:13.410Z,20.30
2022-07-25T04:59:44.236Z,20.40
2022-07-25T05:02:12.400Z,20.60
2022-07-25T05:04:45.161Z,21.20
2022-07-25T05:07:13.629Z,22.50
2022-07-25T05:09:41.740Z,24.00
2022-07-25T05:12:10.410Z,25.40
2022-07-25T05:14:38.558Z,26.40
2022-07-25T05:17:08.076Z,27.20
2022-07-25T05:19:36.126Z,27.90
2022-07-25T05:22:05.345Z,28.50
2022-07-25T05:24:35.030Z,29.10
2022-07-25T05:27:04.081Z,29.50
2022-07-25T05:29:32.901Z,29.30
2022-07-25T05:32:01.136Z,29.00
2022-07-25T05:34:30.543Z,28.90
2022-07-25T05:36:58.567Z,28.70
2022-07-25T05:39:26.596Z,28.10
2022-07-25T05:41:54.656Z,27.50
2022-07-25T05:44:22.747Z,26.90
2022-07-25T05:46:50.782Z,26.60
2022-07-25T05:49:18.830Z,26.40
2022-07-25T05:51:48.188Z,26.00
2022-07-25T05:54:16.344Z,26.00
2022-07-25T05:56:44.414Z,25.90
2022-07-25T05:59:12.431Z,25.90
2022-07-25T06:01:40.535Z,25.80
2022-07-25T06:04:09.107Z,25.80
2022-07-25T06:06:37.380Z,25.70
2022-07-25T06:09:07.973Z,25.90
2022-07-25T06:11:36.301Z,26.00
2022-07-25T06:14:19.414Z,26.00
2022-07-25T06:16:47.929Z,26.10
2022-07-25T06:19:16.090Z,26.10
2022-07-25T06:21:44.109Z,26.20
2022-07-25T06:24:13.485Z,26.30
2022-07-25T06:26:41.601Z,26.40
2022-07-25T06:29:09.757Z,26.40
2022-07-25T06:31:37.803Z,26.40
2022-07-25T06:34:06.164Z,26.40
2022-07-25T06:36:34.366Z,26.50
2022-07-25T06:39:03.274Z,26.50
2022-07-25T06:41:32.595Z,26.50
2022-07-25T06:44:00.642Z,26.50
2022-07-25T06:46:31.351Z,26.60
2022-07-25T06:48:59.673Z,26.60
2022-07-25T06:51:27.770Z,26.60
2022-07-25T06:53:56.653Z,26.60
2022-07-25T06:56:24.722Z,26.70
2022-07-25T06:58:54.655Z,26.70
2022-07-25T07:01:22.656Z,26.80
2022-07-25T07:03:50.883Z,26.90
2022-07-25T07:06:19.022Z,27.00
2022-07-25T07:08:47.028Z,27.00
2022-07-25T07:11:16.692Z,27.10
2022-07-25T07:13:44.864Z,27.10
2022-07-25T07:16:14.523Z,27.20
2022-07-25T07:18:45.809Z,27.30
2022-07-25T07:21:21.489Z,27.30
2022-07-25T07:23:53.619Z,27.10
2022-07-25T07:26:22.405Z,27.00
2022-07-25T07:28:50.554Z,27.00
2022-07-25T07:31:20.187Z,27.00
2022-07-25T07:33:48.261Z,26.80
2022-07-25T07:36:16.274Z,27.00
2022-07-25T07:38:45.174Z,27.20
2022-07-25T07:41:13.744Z,27.20
2022-07-25T07:43:41.808Z,27.30
2022-07-25T07:46:09.912Z,27.40
2022-07-25T07:48:39.795Z,27.40
2022-07-25T07:51:08.146Z,27.60
2022-07-25T07:53:53.764Z,27.50
2022-07-25T07:56:21.802Z,27.60
2022-07-25T07:58:50.485Z,27.70
2022-07-25T08:01:19.244Z,27.70
2022-07-25T08:03:48.655Z,27.80
2022-07-25T08:06:16.748Z,28.00
2022-07-25T08:08:44.788Z,28.10
2022-07-25T08:11:13.022Z,28.20
2022-07-25T08:13:41.091Z,28.20
2022-07-25T08:16:11.751Z,28.40
2022-07-25T08:18:39.821Z,28.30
2022-07-25T08:21:09.246Z,28.40
2022-07-25T08:23:39.215Z,28.50
2022-07-25T08:26:08.123Z,28.60
2022-07-25T08:28:36.180Z,28.60
2022-07-25T08:31:04.465Z,28.70
2022-07-25T08:33:32.629Z,28.80
2022-07-25T08:36:01.154Z,28.80
2022-07-25T08:38:30.866Z,28.90
2022-07-25T08:40:59.796Z,28.90
2022-07-25T08:43:29.260Z,29.00
2022-07-25T08:45:57.342Z,29.10
2022-07-25T08:48:27.728Z,29.20
2022-07-25T08:50:58.090Z,29.30
2022-07-25T08:53:33.046Z,29.50
2022-07-25T08:56:10.396Z,29.70
2022-07-25T08:58:41.770Z,29.80
2022-07-25T09:01:12.561Z,29.70
2022-07-25T09:03:40.697Z,29.80
2022-07-25T09:06:17.797Z,29.80
2022-07-25T09:08:57.837Z,30.00
2022-07-25T09:11:35.687Z,30.00
2022-07-25T09:14:08.906Z,30.10
2022-07-25T09:16:41.012Z,30.20
2022-07-25T09:19:15.083Z,30.20
2022-07-25T09:21:46.128Z,30.40
2022-07-25T09:24:17.854Z,30.40
2022-07-25T09:26:50.076Z,30.40
2022-07-25T09:29:24.684Z,30.60
2022-07-25T09:31:54.916Z,30.60
2022-07-25T09:34:38.804Z,30.60
2022-07-25T09:37:09.248Z,30.50
2022-07-25T09:39:46.316Z,30.60
2022-07-25T09:42:26.691Z,30.60
2022-07-25T09:45:15.961Z,30.70
2022-07-25T09:47:56.406Z,30.80
2022-07-25T09:50:27.181Z,31.00
2022-07-25T09:53:02.446Z,31.00
2022-07-25T09:55:32.797Z,31.10
2022-07-25T09:58:02.232Z,31.10
2022-07-25T10:00:32.572Z,31.10
2022-07-25T10:03:18.593Z,31.10
2022-07-25T10:06:08.919Z,31.10
2022-07-25T10:08:40.047Z,31.30
2022-07-25T10:11:21.202Z,31.30
2022-07-25T10:13:51.204Z,31.40
2022-07-25T10:16:22.579Z,31.60
2022-07-25T10:18:53.761Z,31.70
2022-07-25T10:21:26.909Z,31.60
2022-07-25T10:24:02.335Z,31.60
2022-07-25T10:26:31.504Z,31.50
2022-07-25T10:29:02.093Z,31.60
2022-07-25T10:31:38.412Z,31.60
2022-07-25T10:34:10.638Z,31.60
2022-07-25T10:36:46.719Z,31.60
2022-07-25T10:39:17.002Z,31.60
2022-07-25T10:41:52.342Z,31.60
2022-07-25T10:44:22.542Z,31.60
2022-07-25T10:46:50.626Z,31.70
2022-07-25T10:49:29.070Z,31.90
2022-07-25T10:52:03.107Z,31.90
2022-07-25T10:54:36.556Z,32.00
2022-07-25T10:57:07.203Z,32.00
2022-07-25T10:59:39.777Z,32.10
2022-07-25T11:02:16.277Z,32.30
2022-07-25T11:04:45.827Z,32.30
2022-07-25T11:07:17.674Z,32.50
2022-07-25T11:09:56.553Z,32.40
2022-07-25T11:12:25.006Z,32.30
2022-07-25T11:15:02.200Z,32.30
2022-07-25T11:17:30.609Z,32.40
2022-07-25T11:20:01.355Z,32.30
2022-07-25T11:22:31.994Z,32.30
2022-07-25T11:25:01.291Z,32.30
2022-07-25T11:27:32.084Z,32.30
2022-07-25T11:30:09.881Z,32.40
2022-07-25T11:32:43.181Z,32.50
2022-07-25T11:35:13.063Z,32.50
2022-07-25T11:37:44.677Z,32.50
2022-07-25T11:40:16.257Z,32.50
2022-07-25T11:42:47.525Z,32.50
2022-07-25T11:45:22.163Z,32.50
2022-07-25T11:48:03.397Z,32.50
2022-07-25T11:50:33.578Z,32.60
2022-07-25T11:53:03.171Z,32.50
2022-07-25T11:55:36.314Z,32.50
2022-07-25T11:58:06.912Z,32.60
2022-07-25T12:00:44.876Z,32.70
2022-07-25T12:03:19.393Z,32.80
2022-07-25T12:05:49.748Z,33.00
2022-07-25T12:08:20.640Z,33.00
2022-07-25T12:10:51.299Z,32.90
2022-07-25T12:13:24.979Z,33.00
2022-07-25T12:15:55.116Z,32.90
2022-07-25T12:18:23.256Z,32.90
2022-07-25T12:20:51.288Z,32.90
2022-07-25T12:23:21.653Z,33.00
2022-07-25T12:25:49.885Z,33.00
2022-07-25T12:28:18.055Z,33.10
2022-07-25T12:30:54.375Z,33.10
2022-07-25T12:33:25.886Z,33.10
2022-07-25T12:35:54.053Z,33.20
2022-07-25T12:38:22.093Z,33.30
2022-07-25T12:40:50.415Z,33.30
2022-07-25T12:43:19.073Z,33.20
2022-07-25T12:45:47.225Z,33.30
2022-07-25T12:48:16.006Z,33.30
2022-07-25T12:50:46.133Z,33.30
2022-07-25T12:53:14.487Z,33.30
2022-07-25T12:55:42.577Z,33.50
2022-07-25T12:58:11.493Z,33.50
2022-07-25T13:00:39.581Z,33.60
2022-07-25T13:03:07.630Z,33.70
2022-07-25T13:05:35.703Z,33.80
2022-07-25T13:08:07.360Z,33.90
2022-07-25T13:10:35.328Z,34.00
2022-07-25T13:13:03.677Z,34.10
2022-07-25T13:15:31.715Z,34.20
2022-07-25T13:17:59.763Z,34.30
2022-07-25T13:20:28.509Z,34.40
2022-07-25T13:22:56.691Z,34.40
2022-07-25T13:25:26.071Z,34.60
2022-07-25T13:27:54.225Z,34.70
2022-07-25T13:30:22.394Z,34.60
2022-07-25T13:32:50.384Z,34.60
2022-07-25T13:35:20.755Z,34.40
2022-07-25T13:37:49.593Z,34.40
2022-07-25T13:40:17.778Z,34.40
2022-07-25T13:42:48.379Z,34.60
2022-07-25T13:45:16.540Z,34.70
2022-07-25T13:47:44.568Z,34.60
2022-07-25T13:50:12.745Z,34.60
2022-07-25T13:52:40.827Z,34.60
2022-07-25T13:55:10.374Z,34.70
2022-07-25T13:57:38.431Z,34.70
2022-07-25T14:00:09.988Z,34.80
2022-07-25T14:02:38.163Z,34.70
2022-07-25T14:05:07.157Z,34.70
2022-07-25T14:07:36.826Z,34.60
2022-07-25T14:10:08.342Z,34.60
2022-07-25T14:12:39.402Z,34.50
2022-07-25T14:15:10.698Z,34.60
2022-07-25T14:17:39.217Z,34.50
2022-07-25T14:20:09.417Z,34.50
2022-07-25T14:22:38.454Z,34.40
2022-07-25T14:25:07.559Z,34.50
2022-07-25T14:27:36.193Z,34.60
2022-07-25T14:30:04.857Z,34.60
2022-07-25T14:32:34.732Z,34.70
2022-07-25T14:35:02.977Z,34.90
2022-07-25T14:37:31.640Z,35.00
2022-07-25T14:39:59.870Z,35.00
2022-07-25T14:42:28.234Z,34.90
2022-07-25T14:44:56.380Z,34.70
2022-07-25T14:47:26.677Z,34.60
2022-07-25T14:49:56.792Z,34.30
2022-07-25T14:52:24.837Z,34.10
2022-07-25T14:54:52.974Z,33.90
2022-07-25T14:57:21.035Z,33.90
2022-07-25T14:59:49.066Z,33.90
2022-07-25T15:02:17.105Z,33.70
2022-07-25T15:04:45.155Z,33.60
2022-07-25T15:07:14.629Z,33.50
2022-07-25T15:09:42.738Z,33.40
2022-07-25T15:12:16.142Z,33.40
2022-07-25T15:14:44.613Z,33.50
2022-07-25T15:17:13.791Z,33.30
2022-07-25T15:19:41.891Z,33.40
2022-07-25T15:22:09.989Z,33.40
2022-07-25T15:25:16.850Z,33.40
2022-07-25T15:27:27.971Z,33.40
2022-07-25T15:29:55.970Z,33.40
2022-07-25T15:32:23.992Z,33.30
2022-07-25T15:34:52.047Z,33.40
2022-07-25T15:37:20.288Z,33.50
2022-07-25T15:39:49.705Z,33.60
2022-07-25T15:42:17.926Z,33.70
2022-07-25T15:44:45.941Z,33.70
2022-07-25T15:47:14.591Z,33.80
2022-07-25T15:49:43.411Z,33.90
2022-07-25T15:52:11.442Z,34.00
2022-07-25T15:54:39.502Z,34.10
2022-07-25T15:57:08.953Z,34.10
2022-07-25T15:59:37.360Z,34.00
2022-07-25T16:02:09.345Z,33.80
2022-07-25T16:04:37.370Z,33.70
2022-07-25T16:07:05.484Z,33.50
2022-07-25T16:09:33.626Z,33.30
2022-07-25T16:12:02.066Z,33.20
2022-07-25T16:14:31.467Z,33.00
2022-07-25T16:16:59.486Z,32.80
2022-07-25T16:19:27.524Z,32.70
2022-07-25T16:21:57.155Z,32.60
2022-07-25T16:24:25.643Z,32.40
2022-07-25T16:26:53.974Z,32.20
2022-07-25T16:29:21.988Z,31.80
2022-07-25T16:31:51.642Z,29.80
2022-07-25T16:34:19.682Z,27.70
2022-07-25T16:36:47.709Z,25.90
2022-07-25T16:39:16.020Z,24.70
2022-07-25T16:41:45.450Z,23.90
2022-07-25T16:44:13.420Z,23.50
2022-07-25T16:46:42.351Z,23.20
2022-07-25T16:49:13.387Z,23.00
2022-07-25T16:51:41.530Z,22.90
2022-07-25T16:54:09.579Z,22.80
2022-07-25T16:56:37.778Z,22.90
2022-07-25T16:59:07.423Z,23.00
2022-07-25T17:01:36.598Z,23.20
2022-07-25T17:04:05.534Z,23.50
2022-07-25T17:06:35.012Z,23.60
2022-07-25T17:09:03.119Z,23.80
2022-07-25T17:11:31.235Z,23.80
2022-07-25T17:14:00.500Z,23.70
2022-07-25T17:16:28.711Z,23.60
2022-07-25T17:18:56.955Z,23.60
2022-07-25T17:21:25.061Z,23.50
2022-07-25T17:23:56.443Z,23.40
2022-07-25T17:26:24.707Z,23.40
2022-07-25T17:28:53.587Z,23.50
2022-07-25T17:31:21.836Z,23.40
2022-07-25T17:33:49.842Z,23.40
2022-07-25T17:36:20.287Z,23.30
2022-07-25T17:38:48.350Z,23.20
2022-07-25T17:41:18.058Z,23.20
2022-07-25T17:43:46.062Z,23.30
2022-07-25T17:46:14.200Z,23.30
2022-07-25T17:48:42.885Z,23.30
2022-07-25T17:51:10.911Z,23.50
2022-07-25T17:53:39.134Z,23.70
2022-07-25T17:56:08.766Z,23.80
2022-07-25T17:58:38.531Z,23.90
2022-07-25T18:01:10.294Z,24.10
2022-07-25T18:03:39.218Z,24.20
2022-07-25T18:06:07.385Z,24.30
2022-07-25T18:08:35.994Z,24.20
2022-07-25T18:11:04.353Z,24.20
2022-07-25T18:13:32.356Z,24.20
2022-07-25T18:16:02.030Z,24.00
2022-07-25T18:18:31.582Z,24.00
2022-07-25T18:20:59.730Z,24.10
2022-07-25T18:23:28.747Z,24.00
2022-07-25T18:25:57.133Z,24.00
2022-07-25T18:28:25.413Z,23.90
2022-07-25T18:30:54.997Z,23.90
2022-07-25T18:33:25.536Z,23.70
2022-07-25T18:35:53.721Z,23.60
2022-07-25T18:38:21.756Z,23.60
2022-07-25T18:41:06.526Z,23.50
2022-07-25T18:43:37.865Z,23.40
2022-07-25T18:46:06.209Z,23.40
2022-07-25T18:48:37.526Z,23.40
2022-07-25T18:51:05.756Z,23.30
2022-07-25T18:53:33.944Z,23.20
2022-07-25T18:56:03.216Z,23.20
2022-07-25T18:58:31.344Z,23.20
2022-07-25T19:00:59.476Z,23.10
2022-07-25T19:03:27.701Z,23.20
2022-07-25T19:06:02.827Z,23.30
2022-07-25T19:08:33.279Z,23.30
2022-07-25T19:11:01.458Z,23.40
2022-07-25T19:16:17.802Z,23.20
2022-07-25T19:18:46.175Z,23.20
2022-07-25T19:21:16.707Z,23.20
2022-07-25T19:23:50.551Z,23.00
2022-07-25T19:26:20.346Z,22.90
2022-07-25T19:28:48.524Z,22.80
2022-07-25T19:31:16.722Z,22.70
2022-07-25T19:33:46.029Z,22.60
2022-07-25T19:36:15.540Z,22.60
2022-07-25T19:38:43.793Z,22.50
2022-07-25T19:41:11.902Z,22.50
2022-07-25T19:43:40.033Z,22.50
2022-07-25T19:46:08.060Z,22.50
2022-07-25T19:48:36.206Z,22.40
2022-07-25T19:51:04.386Z,22.40
2022-07-25T19:53:33.978Z,22.40
2022-07-25T19:56:02.095Z,22.40
2022-07-25T19:58:31.484Z,22.50
2022-07-25T20:01:01.279Z,22.50
2022-07-25T20:03:30.428Z,22.50
2022-07-25T20:05:58.689Z,22.60
2022-07-25T20:08:26.751Z,22.60
2022-07-25T20:10:56.168Z,22.60
2022-07-25T20:13:24.201Z,22.60
2022-07-25T20:15:52.209Z,22.60
2022-07-25T20:18:20.277Z,22.60
2022-07-25T20:20:48.432Z,22.60
2022-07-25T20:23:16.739Z,22.70
2022-07-25T20:25:44.865Z,22.70
2022-07-25T20:28:14.259Z,22.70
2022-07-25T20:30:42.694Z,22.70
2022-07-25T20:33:11.368Z,22.70
2022-07-25T20:35:39.833Z,22.70
2022-07-25T20:38:09.281Z,22.70
2022-07-25T20:40:43.855Z,22.70
2022-07-25T20:43:17.736Z,22.70
2022-07-25T20:45:47.470Z,22.80
2022-07-25T20:48:16.050Z,22.90
2022-07-25T20:50:44.822Z,23.00
2022-07-25T20:53:13.333Z,23.00
2022-07-25T20:55:41.305Z,23.00
2022-07-25T20:58:09.352Z,23.10
2022-07-25T21:00:38.777Z,23.20
2022-07-25T21:03:08.245Z,23.10
2022-07-25T21:05:39.325Z,23.10
2022-07-25T21:08:08.048Z,23.00
2022-07-25T21:10:36.147Z,23.10
2022-07-25T21:13:04.171Z,23.10
2022-07-25T21:15:32.494Z,23.10
2022-07-25T21:18:02.504Z,23.10
2022-07-25T21:20:30.765Z,23.10
2022-07-25T21:22:58.908Z,23.00
2022-07-25T21:25:27.246Z,23.00
2022-07-25T21:27:55.252Z,23.10
2022-07-25T21:30:23.282Z,23.00
2022-07-25T21:32:51.330Z,22.90
2022-07-25T21:35:20.680Z,22.90
2022-07-25T21:37:48.719Z,22.90
2022-07-25T21:40:16.922Z,22.90
2022-07-25T21:42:45.244Z,22.80
2022-07-25T21:45:14.150Z,22.70
2022-07-25T21:47:42.235Z,22.70
2022-07-25T21:50:29.078Z,22.80
2022-07-25T21:52:58.764Z,22.70
2022-07-25T21:55:27.001Z,22.60
2022-07-25T21:57:55.166Z,22.60
2022-07-25T22:00:23.448Z,22.50
2022-07-25T22:02:51.848Z,22.40
2022-07-25T22:05:20.612Z,22.40
2022-07-25T22:07:49.685Z,22.40
2022-07-25T22:10:22.115Z,22.50
2022-07-25T22:12:50.569Z,22.50
2022-07-25T22:15:18.743Z,22.40
2022-07-25T22:17:49.068Z,22.30
2022-07-25T22:20:18.995Z,22.20
2022-07-25T22:22:47.616Z,22.10
2022-07-25T22:25:18.379Z,22.00
2022-07-25T22:27:46.566Z,22.10
2022-07-25T22:30:19.231Z,22.00
2022-07-25T22:32:48.434Z,22.00
2022-07-25T22:35:16.728Z,22.00
2022-07-25T22:37:45.284Z,22.00
2022-07-25T22:40:14.636Z,22.00
2022-07-25T22:42:44.325Z,21.90
2022-07-25T22:45:12.852Z,21.90
2022-07-25T22:47:40.953Z,22.00
2022-07-25T22:50:11.009Z,21.90
2022-07-25T22:52:39.195Z,21.80
2022-07-25T22:55:08.317Z,21.90
2022-07-25T22:57:37.757Z,21.70
2022-07-25T23:00:12.535Z,21.60
2022-07-25T23:02:41.280Z,21.60
2022-07-25T23:05:10.822Z,21.50
2022-07-25T23:07:39.240Z,21.50
2022-07-25T23:10:08.959Z,21.60
2022-07-25T23:12:37.111Z,21.40
2022-07-25T23:15:08.418Z,21.40
2022-07-25T23:17:36.472Z,21.40
2022-07-25T23:20:06.790Z,21.50
2022-07-25T23:22:34.940Z,21.40
2022-07-25T23:25:03.178Z,21.30
2022-07-25T23:27:33.239Z,21.20
2022-07-25T23:30:04.387Z,21.20
2022-07-25T23:32:34.448Z,21.20
2022-07-25T23:35:02.821Z,21.20
2022-07-25T23:37:30.911Z,21.20
2022-07-25T23:39:58.955Z,21.10
2022-07-25T23:42:27.074Z,21.00
2022-07-25T23:44:57.507Z,21.10
2022-07-25T23:47:39.411Z,21.10
2022-07-25T23:50:12.467Z,21.00
2022-07-25T23:52:40.873Z,21.10
2022-07-25T23:55:10.587Z,21.00
2022-07-25T23:57:38.911Z,21.10
